Time;durP1;ratioP1;P1;durP2;ratioP2;P2;SDS_P1;SDS_P2;PMS_P1;PMS_P2;Temp;Humidity;BMP_temperature;BMP_pressure;BME280_temperature;BME280_humidity;BME280_pressure;Samples;Min_cycle;Max_cycle;Signal;HPM_P1;HPM_P2
2021/01/30 00:00:36;;;;;;;1.33;1.10;;;;;;;7.72;95.80;95080.69;5014262;28;20221;-61
2021/01/30 00:03:03;;;;;;;1.83;1.27;;;;;;;7.97;94.93;95064.59;5014171;28;20436;-58
2021/01/30 00:05:29;;;;;;;1.27;0.90;;;;;;;7.66;94.09;95073.03;5014403;28;20912;-58
2021/01/30 00:07:55;;;;;;;1.03;0.90;;;;;;;7.52;94.29;95083.00;5013729;28;20430;-57
2021/01/30 00:10:21;;;;;;;4.00;1.37;;;;;;;7.67;93.58;95083.25;5014542;28;20422;-59
2021/01/30 00:12:46;;;;;;;2.00;0.90;;;;;;;7.90;93.01;95077.81;5013830;28;20348;-58
2021/01/30 00:15:15;;;;;;;5.00;0.83;;;;;;;7.66;92.49;95084.28;5014340;28;20444;-57
2021/01/30 00:17:41;;;;;;;1.87;0.97;;;;;;;7.68;92.72;95090.03;5014219;28;20176;-56
2021/01/30 00:20:08;;;;;;;2.93;1.00;;;;;;;7.51;93.17;95096.31;5014241;28;20972;-61
2021/01/30 00:22:34;;;;;;;1.00;0.90;;;;;;;7.44;93.88;95095.69;5014178;28;20180;-57
2021/01/30 00:25:00;;;;;;;1.07;0.70;;;;;;;7.42;94.03;95095.94;5013014;28;20450;-58
2021/01/30 00:27:26;;;;;;;3.70;0.90;;;;;;;7.50;94.20;95089.53;5013989;28;20493;-58
2021/01/30 00:29:51;;;;;;;1.27;0.73;;;;;;;7.48;93.35;95100.22;5014189;28;20954;-57
2021/01/30 00:32:19;;;;;;;2.90;0.90;;;;;;;7.41;93.02;95098.78;5013940;28;20193;-59
2021/01/30 00:34:45;;;;;;;1.33;0.63;;;;;;;7.43;93.45;95088.88;5012071;28;20206;-58
2021/01/30 00:37:15;;;;;;;2.90;0.70;;;;;;;7.19;94.50;95094.22;5013932;28;20884;-59
2021/01/30 00:39:41;;;;;;;0.73;0.60;;;;;;;6.98;94.27;95097.53;5013468;28;20469;-60
2021/01/30 00:42:07;;;;;;;5.47;0.87;;;;;;;7.06;93.47;95084.09;5014075;28;20411;-57
2021/01/30 00:44:33;;;;;;;1.30;0.63;;;;;;;7.12;93.33;95077.91;5013555;28;20441;-60
2021/01/30 00:46:59;;;;;;;0.73;0.70;;;;;;;7.15;93.48;95085.31;5013553;28;20517;-57
2021/01/30 00:49:25;;;;;;;2.63;0.80;;;;;;;7.13;93.34;95081.34;5013423;28;20179;-60
2021/01/30 00:51:51;;;;;;;1.47;0.70;;;;;;;7.26;92.01;95083.66;5013579;28;20433;-59
2021/01/30 00:54:17;;;;;;;1.17;0.70;;;;;;;7.20;92.23;95077.53;5012998;28;20798;-58
2021/01/30 00:56:42;;;;;;;1.23;0.90;;;;;;;7.25;92.96;95082.84;5013267;28;20428;-61
2021/01/30 00:59:09;;;;;;;2.20;0.60;;;;;;;7.45;92.28;95089.41;5013758;28;20601;-60
2021/01/30 01:01:36;;;;;;;0.67;0.50;;;;;;;7.45;93.33;95090.22;5013812;28;20172;-57
2021/01/30 01:04:02;;;;;;;1.23;0.80;;;;;;;7.46;92.52;95089.22;5012545;28;20464;-60
2021/01/30 01:06:28;;;;;;;1.23;0.60;;;;;;;7.51;92.22;95097.13;5013228;28;20904;-58
2021/01/30 01:08:53;;;;;;;0.60;0.60;;;;;;;7.37;92.69;95093.25;5013620;28;20405;-57
2021/01/30 01:11:18;;;;;;;0.60;0.60;;;;;;;7.22;93.17;95090.38;5013218;28;20178;-60
2021/01/30 01:13:45;;;;;;;1.07;0.80;;;;;;;7.35;93.33;95087.47;5013255;28;20202;-57
2021/01/30 01:16:10;;;;;;;1.33;0.50;;;;;;;7.37;92.84;95088.00;5013565;28;20186;-57
2021/01/30 01:18:36;;;;;;;1.50;1.10;;;;;;;7.33;92.92;95092.13;5013526;28;20510;-58
2021/01/30 01:21:01;;;;;;;1.67;0.50;;;;;;;7.08;94.02;95097.69;5013512;28;20737;-60
2021/01/30 01:23:26;;;;;;;0.83;0.70;;;;;;;7.27;94.45;95095.66;5012709;28;20177;-57
2021/01/30 01:25:52;;;;;;;0.80;0.70;;;;;;;7.43;92.05;95089.66;5012783;28;20284;-58
2021/01/30 01:28:17;;;;;;;0.97;0.60;;;;;;;7.39;92.82;95096.41;5013872;28;20578;-60
2021/01/30 01:30:42;;;;;;;4.40;0.90;;;;;;;7.37;92.80;95101.06;5013215;28;20508;-61
2021/01/30 01:33:08;;;;;;;0.50;0.50;;;;;;;7.36;92.72;95090.84;5012693;28;20634;-58
2021/01/30 01:35:33;;;;;;;2.53;0.53;;;;;;;7.28;92.64;95086.81;5013151;28;20210;-58
2021/01/30 01:37:59;;;;;;;1.27;0.60;;;;;;;7.27;93.06;95098.28;5013362;28;20173;-60
2021/01/30 01:40:40;;;;;;;0.97;0.57;;;;;;;7.43;92.27;95086.28;5013256;28;20209;-59
2021/01/30 01:43:13;;;;;;;1.53;0.60;;;;;;;7.36;92.91;95091.63;5012982;28;20493;-57
2021/01/30 01:45:39;;;;;;;3.17;0.80;;;;;;;7.32;94.10;95093.13;5012549;28;20443;-58
2021/01/30 01:48:26;;;;;;;0.90;0.60;;;;;;;7.25;94.62;95095.91;5012504;28;20758;-60
2021/01/30 01:50:52;;;;;;;1.47;0.60;;;;;;;7.37;95.52;95100.28;5012661;28;20899;-61
2021/01/30 01:53:20;;;;;;;1.33;0.50;;;;;;;7.25;95.08;95102.94;5012883;28;20439;-57
2021/01/30 01:55:53;;;;;;;2.50;0.80;;;;;;;7.20;96.10;95100.25;5013267;28;20429;-57
2021/01/30 01:58:21;;;;;;;2.50;0.97;;;;;;;7.19;96.60;95103.91;5013207;28;20417;-60
2021/01/30 02:00:48;;;;;;;0.70;0.70;;;;;;;7.37;96.45;95100.28;5011858;28;20910;-59
2021/01/30 02:03:16;;;;;;;1.80;0.60;;;;;;;7.44;95.76;95098.28;5012976;28;20409;-61
2021/01/30 02:05:41;;;;;;;0.60;0.60;;;;;;;7.34;95.84;95100.75;5010292;28;20452;-60
2021/01/30 02:08:13;;;;;;;2.40;0.60;;;;;;;7.14;95.92;95109.03;5013263;28;20879;-59
2021/01/30 02:10:45;;;;;;;1.70;0.80;;;;;;;7.26;96.70;95094.09;5012297;28;20266;-61
2021/01/30 02:13:15;;;;;;;0.83;0.57;;;;;;;7.28;95.46;95090.19;5012877;28;20444;-60
2021/01/30 02:15:46;;;;;;;0.70;0.50;;;;;;;7.07;96.13;95085.69;5014413;28;20518;-60
2021/01/30 02:18:23;;;;;;;1.73;0.50;;;;;;;7.12;96.28;95084.97;5016600;28;20409;-61
2021/01/30 02:20:58;;;;;;;0.60;0.43;;;;;;;7.25;95.98;95079.44;5016149;28;20434;-60
2021/01/30 02:24:06;;;;;;;1.40;0.60;;;;;;;7.40;94.93;95071.84;4996641;28;20770;-59
2021/01/30 02:27:28;;;;;;;2.57;0.50;;;;;;;7.19;95.82;95086.41;5015162;28;20426;-59
2021/01/30 02:30:12;;;;;;;2.13;0.97;;;;;;;7.38;95.56;95075.72;4921939;29;20786;-57
2021/01/30 02:33:13;;;;;;;1.90;0.47;;;;;;;7.41;95.12;95077.88;4935993;29;20429;-59
2021/01/30 02:36:14;;;;;;;0.70;0.43;;;;;;;7.16;96.92;95080.84;5006111;28;20835;-58
2021/01/30 02:38:45;;;;;;;0.67;0.67;;;;;;;7.06;96.49;95072.84;4930011;28;20692;-58
2021/01/30 02:41:16;;;;;;;0.40;0.30;;;;;;;7.01;97.42;95068.31;5016207;28;20402;-57
2021/01/30 02:43:46;;;;;;;0.53;0.40;;;;;;;6.96;97.30;95057.00;5015746;28;20418;-60
2021/01/30 02:46:19;;;;;;;1.03;0.50;;;;;;;7.17;96.38;95058.94;5015956;28;20418;-59
2021/01/30 02:48:50;;;;;;;0.80;0.53;;;;;;;7.10;96.19;95066.16;5013991;28;20419;-59
2021/01/30 02:51:23;;;;;;;0.50;0.50;;;;;;;7.04;95.52;95065.25;5016285;28;20401;-59
2021/01/30 02:53:53;;;;;;;2.47;0.40;;;;;;;6.88;96.78;95067.84;5015275;28;20448;-60
2021/01/30 02:56:21;;;;;;;0.70;0.50;;;;;;;7.03;96.02;95057.63;5015411;28;20504;-59
2021/01/30 02:59:32;;;;;;;3.70;0.63;;;;;;;7.01;95.09;95070.16;5015648;28;20457;-58
2021/01/30 03:01:58;;;;;;;0.40;0.40;;;;;;;7.18;95.03;95060.50;5010970;28;20929;-57
2021/01/30 03:04:27;;;;;;;1.17;0.50;;;;;;;7.24;94.05;95049.94;5015026;28;20451;-57
2021/01/30 03:07:01;;;;;;;0.50;0.40;;;;;;;7.05;95.37;95052.97;5015363;28;20633;-61
2021/01/30 03:09:51;;;;;;;0.70;0.47;;;;;;;6.99;95.51;95052.09;5015776;28;20401;-60
2021/01/30 03:12:37;;;;;;;0.40;0.40;;;;;;;7.04;95.62;95040.97;5015765;28;20406;-59
2021/01/30 03:15:16;;;;;;;0.73;0.40;;;;;;;7.20;95.62;95045.41;5014457;28;20443;-58
2021/01/30 03:17:45;;;;;;;3.37;0.60;;;;;;;7.46;93.69;95046.59;5015408;28;20513;-58
2021/01/30 03:20:11;;;;;;;0.50;0.50;;;;;;;7.50;92.98;95048.47;5015287;28;20547;-57
2021/01/30 03:22:38;;;;;;;0.70;0.70;;;;;;;7.38;94.08;95045.16;5013744;28;20895;-59
2021/01/30 03:25:06;;;;;;;1.07;0.60;;;;;;;7.41;93.57;95042.06;5014818;28;20464;-58
2021/01/30 03:27:33;;;;;;;0.50;0.50;;;;;;;7.38;93.99;95052.22;5014307;28;20516;-60
2021/01/30 03:30:00;;;;;;;0.50;0.50;;;;;;;7.25;93.71;95051.50;5014572;28;20422;-58
2021/01/30 03:32:28;;;;;;;1.03;0.50;;;;;;;6.95;95.33;95053.63;5015116;28;20501;-57
2021/01/30 03:34:55;;;;;;;0.60;0.50;;;;;;;7.02;96.12;95054.25;5014703;28;20480;-57
2021/01/30 03:37:22;;;;;;;0.60;0.60;;;;;;;7.00;95.91;95055.50;5014815;28;20892;-57
2021/01/30 03:39:48;;;;;;;0.50;0.50;;;;;;;6.98;96.11;95042.69;5015027;28;20440;-57
2021/01/30 03:42:14;;;;;;;0.40;0.40;;;;;;;6.85;96.40;95048.22;5014458;28;20429;-57
2021/01/30 03:44:40;;;;;;;1.13;0.50;;;;;;;7.01;97.08;95038.84;5013896;28;20206;-60
2021/01/30 03:47:06;;;;;;;0.90;0.50;;;;;;;7.04;96.95;95040.97;5012915;28;20948;-58
2021/01/30 03:49:32;;;;;;;0.80;0.57;;;;;;;7.27;95.86;95028.56;5014477;28;20436;-57
2021/01/30 03:51:57;;;;;;;0.77;0.60;;;;;;;7.22;96.11;95035.50;5014494;28;20181;-60
2021/01/30 03:54:22;;;;;;;1.47;0.50;;;;;;;7.13;95.88;95027.28;5014351;28;20195;-57
2021/01/30 03:56:48;;;;;;;0.70;0.60;;;;;;;7.06;97.27;95026.66;5014798;28;20181;-59
2021/01/30 03:59:19;;;;;;;2.10;1.13;;;;;;;6.97;97.20;95040.31;5014778;28;20252;-59
2021/01/30 04:01:45;;;;;;;1.23;0.60;;;;;;;6.91;98.37;95028.22;5014542;28;20543;-60
2021/01/30 04:04:11;;;;;;;0.60;0.60;;;;;;;6.87;98.10;95033.09;5013881;28;20974;-59
2021/01/30 04:06:36;;;;;;;0.70;0.50;;;;;;;6.86;98.23;95020.28;5014264;28;20421;-60
2021/01/30 04:09:04;;;;;;;0.50;0.50;;;;;;;6.77;98.90;95017.28;5014283;28;20503;-60
2021/01/30 04:11:30;;;;;;;0.83;0.50;;;;;;;6.82;99.03;95011.34;5014072;28;20179;-57
2021/01/30 04:13:57;;;;;;;1.00;0.57;;;;;;;6.74;98.58;95015.13;5013637;28;20424;-59
2021/01/30 04:16:23;;;;;;;1.50;0.40;;;;;;;6.53;99.30;95007.19;5014345;28;20933;-57
2021/01/30 04:18:49;;;;;;;1.33;0.50;;;;;;;6.66;99.81;95009.50;5014288;28;20452;-59
2021/01/30 04:21:14;;;;;;;0.67;0.50;;;;;;;6.63;99.38;95005.53;5014377;28;20404;-57
2021/01/30 04:23:44;;;;;;;0.60;0.60;;;;;;;6.62;99.05;94995.34;5013411;28;20535;-60
2021/01/30 04:26:10;;;;;;;0.43;0.43;;;;;;;6.69;99.25;94995.97;5013512;28;20547;-57
2021/01/30 04:28:36;;;;;;;1.50;0.60;;;;;;;6.57;99.70;94997.88;5014125;28;20402;-57
2021/01/30 04:31:01;;;;;;;2.63;0.60;;;;;;;6.67;99.45;95001.44;5014121;28;20173;-57
2021/01/30 04:33:26;;;;;;;2.37;0.80;;;;;;;6.62;97.87;94993.53;5013355;28;20699;-57
2021/01/30 04:35:52;;;;;;;2.30;0.50;;;;;;;6.69;98.07;94990.75;5013862;28;20247;-57
2021/01/30 04:38:17;;;;;;;1.23;0.63;;;;;;;6.60;98.65;94994.78;5013499;28;20177;-59
2021/01/30 04:40:45;;;;;;;1.37;0.80;;;;;;;6.57;99.04;94983.00;5013274;28;20208;-57
2021/01/30 04:43:19;;;;;;;1.47;0.73;;;;;;;6.66;98.69;94989.44;5013552;28;20173;-61
2021/01/30 04:45:52;;;;;;;3.13;0.90;;;;;;;6.78;98.70;94990.16;5013497;28;20779;-57
2021/01/30 04:48:17;;;;;;;2.37;0.70;;;;;;;6.70;98.32;94984.53;5014089;28;20429;-57
2021/01/30 04:50:51;;;;;;;1.70;0.73;;;;;;;6.82;98.58;94980.81;5013991;28;20404;-59
2021/01/30 04:53:29;;;;;;;2.77;0.70;;;;;;;6.92;97.69;94974.97;5012525;28;20645;-57
2021/01/30 04:56:08;;;;;;;4.43;1.10;;;;;;;7.04;96.87;94979.09;5013636;28;20429;-59
2021/01/30 04:58:44;;;;;;;2.60;1.10;;;;;;;6.99;96.08;94967.78;5013889;28;20404;-59
2021/01/30 05:01:24;;;;;;;2.13;0.90;;;;;;;6.87;96.80;94974.88;5013910;28;20405;-59
2021/01/30 05:04:07;;;;;;;2.60;0.90;;;;;;;6.63;96.53;94976.06;5012882;28;20461;-60
2021/01/30 05:06:58;;;;;;;1.93;1.37;;;;;;;6.77;97.16;94966.91;5013637;28;20875;-60
2021/01/30 05:09:46;;;;;;;1.63;0.90;;;;;;;6.82;96.60;94961.75;4963817;28;20509;-57
2021/01/30 05:12:20;;;;;;;2.63;1.40;;;;;;;6.80;94.37;94966.41;4999895;28;20478;-57
2021/01/30 05:15:23;;;;;;;3.10;1.10;;;;;;;7.03;94.41;94959.22;5013239;28;20973;-60
2021/01/30 05:18:09;;;;;;;5.60;1.10;;;;;;;7.03;93.61;94961.03;5010190;28;20961;-60
2021/01/30 05:20:38;;;;;;;3.60;1.10;;;;;;;7.14;93.40;94947.91;5013326;28;20457;-57
2021/01/30 05:23:06;;;;;;;4.40;1.30;;;;;;;7.02;93.36;94959.47;5012606;28;20447;-61
2021/01/30 05:25:32;;;;;;;2.23;1.50;;;;;;;7.02;93.78;94949.03;5013523;28;20428;-59
2021/01/30 05:28:24;;;;;;;5.60;1.30;;;;;;;7.00;92.98;94946.66;5013346;28;20420;-57
2021/01/30 05:31:08;;;;;;;4.70;1.70;;;;;;;6.86;93.24;94945.41;5013740;28;20436;-57
2021/01/30 05:33:50;;;;;;;2.47;1.10;;;;;;;7.02;92.70;94949.81;5013142;28;20509;-60
2021/01/30 05:36:39;;;;;;;4.23;1.07;;;;;;;7.17;91.91;94936.19;5012671;28;20438;-60
2021/01/30 05:39:36;;;;;;;3.00;1.40;;;;;;;7.19;90.79;94941.97;5012033;28;20453;-57
2021/01/30 05:42:08;;;;;;;5.53;1.10;;;;;;;7.03;91.25;94934.94;5013214;28;20501;-57
2021/01/30 05:44:42;;;;;;;6.43;1.30;;;;;;;6.93;91.69;94938.19;5011574;28;20812;-59
2021/01/30 05:47:22;;;;;;;3.53;1.10;;;;;;;7.06;90.53;94939.69;5013357;28;20808;-59
2021/01/30 05:50:02;;;;;;;2.30;0.93;;;;;;;7.13;91.02;94937.69;5012127;28;20503;-59
2021/01/30 05:52:34;;;;;;;5.53;1.57;;;;;;;6.94;90.67;94939.75;5017326;28;20983;-60
2021/01/30 05:54:59;;;;;;;4.57;1.20;;;;;;;6.88;91.08;94940.72;5016015;28;20448;-61
2021/01/30 05:57:25;;;;;;;6.70;1.47;;;;;;;7.00;91.06;94936.22;5017179;28;20409;-59
2021/01/30 05:59:54;;;;;;;6.43;1.50;;;;;;;6.95;91.14;94933.53;5015625;28;20201;-58
2021/01/30 06:02:25;;;;;;;6.47;1.47;;;;;;;6.90;91.27;94927.44;5016303;28;20184;-59
2021/01/30 06:04:51;;;;;;;3.60;1.10;;;;;;;6.88;91.13;94926.88;5016149;28;20445;-60
2021/01/30 06:07:31;;;;;;;5.50;1.47;;;;;;;6.93;91.33;94914.69;5016677;28;20418;-60
2021/01/30 06:09:57;;;;;;;9.00;2.00;;;;;;;6.97;90.93;94917.63;5016271;28;20267;-57
2021/01/30 06:12:29;;;;;;;6.10;1.17;;;;;;;6.78;91.55;94922.28;5016681;28;20423;-59
2021/01/30 06:15:07;;;;;;;7.03;1.50;;;;;;;7.04;90.51;94913.81;5016295;28;20436;-60
2021/01/30 06:17:33;;;;;;;4.27;1.27;;;;;;;6.87;90.52;94917.44;5015353;28;20465;-57
2021/01/30 06:20:17;;;;;;;5.13;1.67;;;;;;;6.94;90.41;94918.88;5016556;28;20457;-59
2021/01/30 06:22:44;;;;;;;2.37;0.97;;;;;;;6.80;91.68;94914.22;5016214;28;20488;-62
2021/01/30 06:25:22;;;;;;;4.00;1.17;;;;;;;6.94;91.55;94910.25;5015803;28;20976;-57
2021/01/30 06:27:49;;;;;;;6.97;1.33;;;;;;;6.89;90.31;94916.19;5015027;28;20417;-57
2021/01/30 06:30:29;;;;;;;5.30;1.20;;;;;;;6.84;91.13;94910.09;5015431;28;20426;-57
2021/01/30 06:33:00;;;;;;;6.40;1.23;;;;;;;6.79;91.35;94902.22;5016102;28;20409;-58
2021/01/30 06:35:31;;;;;;;4.00;1.43;;;;;;;7.01;91.08;94903.06;5016137;28;20441;-60
2021/01/30 06:38:00;;;;;;;5.70;1.90;;;;;;;6.95;89.80;94906.63;5015884;28;20420;-61
2021/01/30 06:40:33;;;;;;;3.83;1.40;;;;;;;6.88;90.70;94895.56;5015994;28;20479;-59
2021/01/30 06:43:11;;;;;;;5.67;1.50;;;;;;;6.97;90.23;94897.53;5015936;28;20402;-58
2021/01/30 06:45:42;;;;;;;10.10;1.73;;;;;;;7.13;89.73;94903.75;5015258;28;20442;-59
2021/01/30 06:48:24;;;;;;;6.97;1.50;;;;;;;7.09;89.59;94905.25;5015941;28;20405;-57
2021/01/30 06:50:49;;;;;;;5.83;1.87;;;;;;;6.89;91.00;94902.34;5015860;28;20743;-57
2021/01/30 06:53:28;;;;;;;5.40;1.83;;;;;;;7.14;89.63;94903.50;5015448;28;20412;-57
2021/01/30 06:55:53;;;;;;;6.00;1.83;;;;;;;7.08;89.14;94903.69;5015705;28;20218;-58
2021/01/30 06:58:24;;;;;;;9.10;1.77;;;;;;;7.12;89.63;94910.03;5015174;28;20469;-58
2021/01/30 07:00:50;;;;;;;6.93;1.63;;;;;;;7.18;89.44;94899.41;5015901;28;20224;-58
2021/01/30 07:03:51;;;;;;;7.60;1.93;;;;;;;7.37;88.49;94902.53;5014621;28;20481;-60
2021/01/30 07:06:23;;;;;;;4.80;2.07;;;;;;;7.38;88.27;94898.06;4983316;28;20445;-58
2021/01/30 07:09:18;;;;;;;8.03;1.80;;;;;;;7.31;88.15;94895.66;5015646;28;20398;-60
2021/01/30 07:12:04;;;;;;;4.67;2.07;;;;;;;7.51;87.48;94897.72;4956140;28;20434;-60
2021/01/30 07:14:36;;;;;;;4.47;1.57;;;;;;;7.46;86.97;94898.47;4995538;28;20423;-57
2021/01/30 07:17:16;;;;;;;4.97;1.70;;;;;;;7.33;87.21;94893.59;4994476;28;20511;-59
2021/01/30 07:19:50;;;;;;;5.43;1.43;;;;;;;7.55;87.04;94894.41;4995802;28;20512;-59
2021/01/30 07:22:23;;;;;;;4.63;1.60;;;;;;;7.63;87.22;94895.78;4994772;28;20433;-58
2021/01/30 07:24:54;;;;;;;4.80;1.73;;;;;;;7.42;87.45;94886.91;5006127;28;20807;-60
2021/01/30 07:27:25;;;;;;;7.77;1.57;;;;;;;7.40;88.18;94888.97;5015380;28;20397;-58
2021/01/30 07:30:03;;;;;;;4.53;1.73;;;;;;;7.38;87.83;94891.03;5014962;28;20420;-57
2021/01/30 07:32:29;;;;;;;8.10;1.80;;;;;;;7.20;88.94;94893.91;5015157;28;20502;-60
2021/01/30 07:35:22;;;;;;;6.90;1.73;;;;;;;7.39;88.68;94887.41;5014823;28;20848;-60
2021/01/30 07:38:05;;;;;;;6.43;1.90;;;;;;;7.36;88.53;94884.47;5015246;28;20714;-59
2021/01/30 07:40:50;;;;;;;4.63;1.67;;;;;;;7.42;88.03;94879.06;5014756;28;20461;-57
2021/01/30 07:43:22;;;;;;;5.77;1.63;;;;;;;7.26;89.79;94872.84;5015045;28;20417;-60
2021/01/30 07:46:13;;;;;;;6.53;2.70;;;;;;;7.45;88.70;94870.75;5014787;28;20465;-60
2021/01/30 07:49:03;;;;;;;5.40;1.90;;;;;;;7.54;88.01;94868.47;5014438;28;20417;-58
2021/01/30 07:51:34;;;;;;;5.37;1.67;;;;;;;7.35;88.31;94878.47;5015063;28;20410;-60
2021/01/30 07:54:01;;;;;;;7.30;1.70;;;;;;;7.37;88.38;94873.78;5012874;28;20435;-61
2021/01/30 07:56:57;;;;;;;6.70;1.90;;;;;;;7.42;88.16;94875.66;5014831;28;20406;-60
2021/01/30 07:59:46;;;;;;;7.67;1.87;;;;;;;7.45;88.43;94865.50;5014754;28;20450;-58
2021/01/30 08:02:53;;;;;;;4.97;1.93;;;;;;;7.42;88.23;94866.00;5009812;28;20456;-58
2021/01/30 08:05:24;;;;;;;5.93;1.80;;;;;;;7.20;89.06;94863.38;4977010;28;20494;-60
2021/01/30 08:08:37;;;;;;;5.80;1.50;;;;;;;7.23;88.95;94860.28;5014360;28;20420;-62
2021/01/30 08:11:33;;;;;;;5.43;1.60;;;;;;;7.38;88.71;94867.53;4987874;28;20430;-59
2021/01/30 08:14:15;;;;;;;3.80;1.93;;;;;;;7.43;88.99;94851.91;4980461;28;20951;-61
2021/01/30 08:17:14;;;;;;;4.77;2.70;;;;;;;7.54;87.94;94847.56;5001317;28;20421;-60
2021/01/30 08:19:53;;;;;;;5.10;1.70;;;;;;;7.46;88.97;94840.97;5013732;28;20483;-58
2021/01/30 08:22:33;;;;;;;9.70;2.10;;;;;;;7.41;88.34;94845.34;4994978;28;20415;-61
2021/01/30 08:25:06;;;;;;;7.03;2.37;;;;;;;7.48;89.44;94849.38;5011014;28;20442;-58
2021/01/30 08:27:37;;;;;;;8.13;1.77;;;;;;;7.69;88.35;94843.31;5014334;28;20405;-61
2021/01/30 08:30:10;;;;;;;6.60;2.27;;;;;;;7.63;87.66;94841.69;5013909;28;20498;-61
2021/01/30 08:32:39;;;;;;;8.10;2.00;;;;;;;7.51;88.49;94851.47;5014455;28;20472;-58
2021/01/30 08:35:19;;;;;;;12.13;2.23;;;;;;;7.60;88.68;94836.97;5012872;28;20449;-62
2021/01/30 08:38:11;;;;;;;6.27;1.60;;;;;;;7.57;88.19;94836.66;5012764;28;20426;-61
2021/01/30 08:40:48;;;;;;;6.60;1.93;;;;;;;7.79;87.64;94837.44;5014016;28;20458;-58
2021/01/30 08:43:19;;;;;;;6.77;2.40;;;;;;;7.64;87.50;94832.81;5013398;28;20422;-61
2021/01/30 08:45:45;;;;;;;10.10;2.20;;;;;;;7.73;87.03;94833.16;5012652;28;20485;-59
2021/01/30 08:48:25;;;;;;;8.50;2.20;;;;;;;7.62;88.64;94832.28;5013189;28;20919;-59
2021/01/30 08:50:53;;;;;;;4.80;1.97;;;;;;;7.65;87.99;94839.63;5012545;28;20172;-59
2021/01/30 08:53:30;;;;;;;3.80;1.53;;;;;;;7.64;87.41;94835.44;5014014;28;20407;-58
2021/01/30 08:56:01;;;;;;;5.10;1.90;;;;;;;7.79;88.18;94835.59;5012777;28;20791;-61
2021/01/30 08:58:32;;;;;;;11.10;3.27;;;;;;;7.86;86.75;94848.47;5013866;28;20404;-61
2021/01/30 09:01:01;;;;;;;6.20;2.33;;;;;;;8.00;86.07;94847.03;5013839;28;20481;-59
2021/01/30 09:03:59;;;;;;;5.60;1.70;;;;;;;7.99;85.70;94846.25;5012462;28;20897;-59
2021/01/30 09:06:39;;;;;;;5.97;1.93;;;;;;;7.94;85.96;94845.41;5013628;28;20396;-58
2021/01/30 09:09:23;;;;;;;5.40;2.10;;;;;;;8.00;86.72;94840.00;5013327;28;20540;-61
2021/01/30 09:11:57;;;;;;;8.03;2.43;;;;;;;8.20;85.85;94837.56;5013702;28;20491;-61
2021/01/30 09:14:22;;;;;;;8.60;3.30;;;;;;;8.32;85.46;94832.19;5013200;28;20427;-58
2021/01/30 09:16:56;;;;;;;9.13;2.27;;;;;;;8.00;85.70;94837.38;5013063;28;20426;-59
2021/01/30 09:19:48;;;;;;;6.70;2.70;;;;;;;7.95;86.79;94837.31;5013679;28;20192;-58
2021/01/30 09:22:34;;;;;;;7.20;2.80;;;;;;;7.94;87.66;94833.13;5013181;28;20449;-59
2021/01/30 09:25:16;;;;;;;8.40;3.27;;;;;;;7.76;87.51;94819.59;4994331;28;20415;-58
2021/01/30 09:27:51;;;;;;;7.50;4.70;;;;;;;7.98;87.84;94826.38;5002883;28;20469;-58
2021/01/30 09:30:30;;;;;;;3.70;2.80;;;;;;;8.31;86.82;94820.94;5017321;28;20744;-59
2021/01/30 09:32:56;;;;;;;7.23;3.53;;;;;;;8.30;85.87;94813.34;5017277;28;20446;-62
2021/01/30 09:35:36;;;;;;;6.20;5.20;;;;;;;8.56;85.35;94809.09;5017187;28;20434;-62
2021/01/30 09:38:23;;;;;;;5.53;2.47;;;;;;;8.70;84.19;94816.25;5017326;28;20424;-58
2021/01/30 09:40:49;;;;;;;6.30;2.23;;;;;;;8.70;84.41;94810.22;5017123;28;20448;-58
2021/01/30 09:43:21;;;;;;;7.33;3.13;;;;;;;8.35;85.47;94821.25;5016413;28;20427;-58
2021/01/30 09:45:51;;;;;;;7.47;3.27;;;;;;;8.39;86.04;94813.69;5016540;28;20438;-61
2021/01/30 09:48:18;;;;;;;9.50;2.90;;;;;;;8.40;85.33;94815.25;5016892;28;20431;-62
2021/01/30 09:50:57;;;;;;;5.30;1.90;;;;;;;8.31;86.02;94812.31;5016662;28;20890;-61
2021/01/30 09:53:36;;;;;;;6.07;1.97;;;;;;;8.17;85.81;94817.13;5016575;28;20809;-61
2021/01/30 09:56:14;;;;;;;2.50;1.50;;;;;;;8.06;86.96;94831.16;4997292;28;20793;-58
2021/01/30 09:58:43;;;;;;;8.90;2.33;;;;;;;8.07;88.22;94819.66;5002224;28;20442;-58
2021/01/30 10:01:31;;;;;;;13.30;2.47;;;;;;;8.02;88.16;94827.47;5016828;28;20402;-61
2021/01/30 10:03:57;;;;;;;7.67;2.70;;;;;;;7.94;89.37;94817.44;5015674;28;20781;-62
2021/01/30 10:06:29;;;;;;;13.53;1.90;;;;;;;8.09;88.83;94817.59;5016943;28;20466;-58
2021/01/30 10:09:10;;;;;;;6.73;2.50;;;;;;;8.05;90.02;94815.72;5016522;28;20213;-62
2021/01/30 10:11:38;;;;;;;6.93;2.33;;;;;;;7.95;91.79;94813.78;5016320;28;20416;-60
2021/01/30 10:14:04;;;;;;;8.30;2.77;;;;;;;8.05;91.93;94813.88;5014521;28;20505;-61
2021/01/30 10:16:30;;;;;;;7.30;2.03;;;;;;;8.11;92.12;94812.09;5012603;28;20424;-60
2021/01/30 10:19:18;;;;;;;4.97;2.20;;;;;;;8.09;92.93;94812.38;5012483;28;20481;-58
2021/01/30 10:21:44;;;;;;;5.23;2.00;;;;;;;8.15;92.33;94803.50;5002367;28;20184;-58
2021/01/30 10:24:11;;;;;;;10.57;3.20;;;;;;;7.95;94.19;94800.69;5012447;28;20445;-59
2021/01/30 10:26:36;;;;;;;7.50;2.47;;;;;;;7.92;93.86;94801.22;5011881;28;20236;-56
2021/01/30 10:29:06;;;;;;;8.00;3.17;;;;;;;8.03;95.98;94796.84;5012787;28;20912;-58
2021/01/30 10:31:41;;;;;;;10.30;2.80;;;;;;;8.00;95.82;94795.53;5012004;28;20187;-62
2021/01/30 10:34:31;;;;;;;11.00;3.17;;;;;;;8.13;95.34;94782.03;5001857;28;20433;-57
2021/01/30 10:37:06;;;;;;;4.80;1.80;;;;;;;8.14;95.09;94775.78;5012653;28;20971;-58
2021/01/30 10:39:35;;;;;;;7.53;2.60;;;;;;;8.11;97.11;94776.28;4992639;28;20477;-64
2021/01/30 10:42:06;;;;;;;6.90;2.33;;;;;;;8.19;96.52;94785.47;5004756;28;20497;-62
2021/01/30 10:44:34;;;;;;;11.87;3.60;;;;;;;8.44;95.54;94771.84;5012179;28;20458;-59
2021/01/30 10:47:02;;;;;;;6.50;2.63;;;;;;;8.43;94.54;94775.50;5021324;28;20431;-60
2021/01/30 10:49:31;;;;;;;5.40;2.10;;;;;;;8.26;96.06;94770.41;5012311;28;20426;-58
2021/01/30 10:52:10;;;;;;;7.57;2.67;;;;;;;8.47;94.73;94771.34;5011584;28;20429;-58
2021/01/30 10:54:38;;;;;;;9.70;2.57;;;;;;;8.63;95.01;94763.34;5011694;28;20483;-59
2021/01/30 10:57:17;;;;;;;22.87;3.30;;;;;;;8.69;93.64;94764.16;5011960;28;20991;-57
2021/01/30 10:59:57;;;;;;;11.50;2.83;;;;;;;8.84;94.50;94766.88;5012189;28;20450;-64
2021/01/30 11:02:31;;;;;;;7.03;1.90;;;;;;;8.85;94.08;94760.56;5011797;28;20413;-63
2021/01/30 11:05:08;;;;;;;7.70;2.43;;;;;;;8.85;95.03;94757.97;5010827;28;20458;-62
2021/01/30 11:07:43;;;;;;;7.47;2.70;;;;;;;9.07;93.33;94754.16;5012235;28;20547;-63
2021/01/30 11:10:21;;;;;;;10.07;2.60;;;;;;;8.99;91.92;94751.22;5011887;28;20424;-62
2021/01/30 11:12:47;;;;;;;8.93;3.10;;;;;;;9.10;92.91;94753.63;5011465;28;20429;-62
2021/01/30 11:15:17;;;;;;;11.97;2.70;;;;;;;9.09;92.59;94741.59;5011494;28;21056;-63
2021/01/30 11:17:43;;;;;;;7.17;2.20;;;;;;;9.39;92.20;94740.88;5011807;28;20171;-63
2021/01/30 11:20:10;;;;;;;10.00;2.90;;;;;;;9.43;92.45;94736.72;5010338;28;20464;-63
2021/01/30 11:22:35;;;;;;;12.30;3.10;;;;;;;9.64;91.27;94734.94;5011469;28;20665;-60
2021/01/30 11:25:04;;;;;;;10.10;2.77;;;;;;;9.53;91.89;94728.84;5011332;28;20444;-61
2021/01/30 11:27:33;;;;;;;8.37;2.80;;;;;;;9.63;90.92;94722.84;5011306;28;20664;-59
2021/01/30 11:30:19;;;;;;;6.73;2.13;;;;;;;9.85;90.47;94715.53;5011405;28;20417;-58
2021/01/30 11:32:51;;;;;;;9.13;3.07;;;;;;;10.04;89.08;94708.72;4994330;28;20429;-61
2021/01/30 11:35:23;;;;;;;6.50;2.33;;;;;;;10.17;87.58;94708.22;5011434;28;20589;-61
2021/01/30 11:37:49;;;;;;;11.20;2.37;;;;;;;10.32;87.53;94698.53;5011341;28;20448;-60
2021/01/30 11:40:15;;;;;;;7.80;5.83;;;;;;;10.27;87.40;94703.75;5010334;28;20532;-62
2021/01/30 11:42:41;;;;;;;5.30;2.37;;;;;;;10.54;86.47;94694.78;5010268;28;20422;-63
2021/01/30 11:45:07;;;;;;;11.07;2.57;;;;;;;10.52;84.60;94686.41;5011083;28;20438;-62
2021/01/30 11:47:33;;;;;;;8.40;2.50;;;;;;;10.54;84.72;94689.53;5010497;28;20266;-60
2021/01/30 11:49:59;;;;;;;9.17;2.23;;;;;;;10.32;85.07;94681.97;5011473;28;20776;-60
2021/01/30 11:52:27;;;;;;;12.70;2.90;;;;;;;10.16;84.83;94672.56;5010319;28;20202;-61
2021/01/30 11:54:52;;;;;;;5.33;2.00;;;;;;;10.24;84.29;94670.16;5010576;28;20203;-61
2021/01/30 11:57:18;;;;;;;5.07;1.90;;;;;;;10.27;84.39;94661.75;5010906;28;20965;-63
2021/01/30 11:59:44;;;;;;;6.70;1.93;;;;;;;10.05;84.39;94655.22;5009851;28;20197;-61
2021/01/30 12:02:15;;;;;;;5.97;1.80;;;;;;;9.83;84.92;94652.88;5010250;28;20411;-61
2021/01/30 12:04:40;;;;;;;6.50;2.00;;;;;;;10.10;84.46;94653.41;5009081;28;20204;-61
2021/01/30 12:07:05;;;;;;;6.90;2.00;;;;;;;10.21;84.04;94649.72;5011059;28;20551;-61
2021/01/30 12:09:31;;;;;;;7.43;2.50;;;;;;;10.14;83.51;94651.81;5011012;28;20556;-61